createdAt,value
2023-01-28T00:01:36.006Z,55.50
2023-01-28T00:04:04.130Z,55.30
2023-01-28T00:06:30.722Z,55.40
2023-01-28T00:08:57.210Z,55.50
2023-01-28T00:11:23.668Z,55.40
2023-01-28T00:13:50.143Z,55.30
2023-01-28T00:16:16.619Z,55.30
2023-01-28T00:18:43.106Z,55.30
2023-01-28T00:21:09.572Z,55.10
2023-01-28T00:23:36.075Z,55.40
2023-01-28T00:26:02.571Z,55.40
2023-01-28T00:28:29.253Z,55.30
2023-01-28T00:30:55.767Z,55.30
2023-01-28T00:33:22.247Z,55.30
2023-01-28T00:35:48.725Z,55.20
2023-01-28T00:38:15.206Z,55.20
2023-01-28T00:40:41.677Z,55.10
2023-01-28T00:43:08.159Z,55.10
2023-01-28T00:45:34.623Z,55.10
2023-01-28T00:48:01.124Z,55.00
2023-01-28T00:50:27.614Z,55.10
2023-01-28T00:52:54.110Z,55.00
2023-01-28T00:55:20.598Z,55.00
2023-01-28T00:57:47.096Z,54.90
2023-01-28T01:00:13.568Z,54.90
2023-01-28T01:02:41.977Z,54.80
2023-01-28T01:05:08.622Z,54.90
2023-01-28T01:07:35.128Z,54.70
2023-01-28T01:10:04.130Z,54.80
2023-01-28T01:12:34.300Z,54.70
2023-01-28T01:15:00.768Z,54.80
2023-01-28T01:17:27.241Z,54.80
2023-01-28T01:19:58.139Z,54.70
2023-01-28T01:22:24.606Z,54.80
2023-01-28T01:24:51.082Z,54.70
2023-01-28T01:27:17.553Z,54.60
2023-01-28T01:29:44.047Z,54.80
2023-01-28T01:32:10.558Z,54.70
2023-01-28T01:34:37.045Z,54.70
2023-01-28T01:37:03.532Z,54.70
2023-01-28T01:39:30.020Z,54.70
2023-01-28T01:41:56.490Z,54.60
2023-01-28T01:44:22.953Z,54.60
2023-01-28T01:46:49.408Z,54.60
2023-01-28T01:49:15.902Z,54.50
2023-01-28T01:51:42.382Z,54.50
2023-01-28T01:54:08.891Z,54.50
2023-01-28T01:56:35.357Z,54.50
2023-01-28T01:59:01.865Z,54.50
2023-01-28T02:01:28.342Z,54.50
2023-01-28T02:03:54.846Z,54.40
2023-01-28T02:06:21.309Z,54.30
2023-01-28T02:08:47.811Z,54.10
2023-01-28T02:11:14.293Z,54.30
2023-01-28T02:13:40.789Z,54.30
2023-01-28T02:16:07.251Z,54.30
2023-01-28T02:18:33.768Z,54.30
2023-01-28T02:21:00.247Z,54.30
2023-01-28T02:23:26.716Z,54.30
2023-01-28T02:25:53.189Z,54.20
2023-01-28T02:28:19.669Z,54.10
2023-01-28T02:30:46.181Z,54.30
2023-01-28T02:33:12.671Z,54.20
2023-01-28T02:35:39.156Z,54.20
2023-01-28T02:38:05.634Z,54.10
2023-01-28T02:40:34.248Z,54.00
2023-01-28T02:43:00.725Z,54.10
2023-01-28T02:45:27.195Z,54.00
2023-01-28T02:47:53.657Z,53.90
2023-01-28T02:50:20.134Z,53.90
2023-01-28T02:52:52.295Z,53.80
2023-01-28T02:55:18.808Z,53.70
2023-01-28T02:57:46.177Z,53.90
2023-01-28T03:00:12.659Z,54.00
2023-01-28T03:02:39.191Z,54.00
2023-01-28T03:05:05.702Z,53.70
2023-01-28T03:07:32.159Z,53.90
2023-01-28T03:09:58.661Z,53.90
2023-01-28T03:12:25.136Z,53.80
2023-01-28T03:14:51.630Z,53.80
2023-01-28T03:17:18.089Z,53.70
2023-01-28T03:19:44.606Z,53.80
2023-01-28T03:22:11.079Z,53.80
2023-01-28T03:24:37.627Z,53.80
2023-01-28T03:27:04.081Z,53.70
2023-01-28T03:29:30.569Z,53.70
2023-01-28T03:31:57.073Z,53.70
2023-01-28T03:34:23.590Z,53.60
2023-01-28T03:36:50.084Z,53.50
2023-01-28T03:39:16.563Z,53.50
2023-01-28T03:41:43.039Z,53.40
2023-01-28T03:44:10.221Z,53.50
2023-01-28T03:46:36.733Z,53.50
2023-01-28T03:49:03.244Z,53.50
2023-01-28T03:51:29.724Z,53.50
2023-01-28T03:53:56.191Z,53.40
2023-01-28T03:56:28.265Z,53.40
2023-01-28T03:58:54.737Z,53.40
2023-01-28T04:01:21.269Z,53.30
2023-01-28T04:03:47.833Z,53.30
2023-01-28T04:06:14.308Z,53.30
2023-01-28T04:08:40.789Z,53.30
2023-01-28T04:11:07.276Z,53.30
2023-01-28T04:13:33.761Z,53.20
2023-01-28T04:16:04.294Z,53.30
2023-01-28T04:18:30.765Z,53.10
2023-01-28T04:20:57.246Z,53.30
2023-01-28T04:23:23.714Z,53.30
2023-01-28T04:25:50.180Z,53.20
2023-01-28T04:28:16.643Z,53.20
2023-01-28T04:30:43.240Z,53.10
2023-01-28T04:33:09.738Z,53.10
2023-01-28T04:35:36.205Z,53.10
2023-01-28T04:38:02.679Z,53.10
2023-01-28T04:40:29.156Z,53.10
2023-01-28T04:42:55.636Z,53.00
2023-01-28T04:45:22.322Z,52.80
2023-01-28T04:47:48.798Z,52.90
2023-01-28T04:50:15.303Z,52.90
2023-01-28T04:52:41.752Z,53.00
2023-01-28T04:55:08.244Z,52.90
2023-01-28T04:57:34.712Z,52.80
2023-01-28T05:00:01.202Z,52.80
2023-01-28T05:02:27.675Z,52.80
2023-01-28T05:04:54.186Z,52.80
2023-01-28T05:07:20.654Z,52.80
2023-01-28T05:09:47.242Z,52.80
2023-01-28T05:12:13.728Z,52.80
2023-01-28T05:14:40.150Z,52.80
2023-01-28T05:17:06.633Z,52.60
2023-01-28T05:19:33.132Z,52.70
2023-01-28T05:21:59.612Z,52.70
2023-01-28T05:24:26.140Z,52.40
2023-01-28T05:26:52.651Z,52.60
2023-01-28T05:29:19.118Z,52.50
2023-01-28T05:31:45.586Z,52.70
2023-01-28T05:34:12.061Z,52.60
2023-01-28T05:36:38.555Z,52.50
2023-01-28T05:39:05.040Z,52.40
2023-01-28T05:41:31.509Z,52.50
2023-01-28T05:43:57.975Z,52.40
2023-01-28T05:46:24.461Z,52.50
2023-01-28T05:48:50.955Z,52.40
2023-01-28T05:51:17.497Z,52.40
2023-01-28T05:53:43.962Z,52.40
2023-01-28T05:56:10.485Z,52.30
2023-01-28T05:58:36.971Z,52.30
2023-01-28T06:01:03.494Z,52.00
2023-01-28T06:03:29.981Z,52.30
2023-01-28T06:05:56.480Z,52.10
2023-01-28T06:08:22.963Z,52.10
2023-01-28T06:10:49.443Z,52.20
2023-01-28T06:13:15.906Z,52.20
2023-01-28T06:15:42.456Z,52.20
2023-01-28T06:18:08.964Z,52.20
2023-01-28T06:20:35.463Z,52.10
2023-01-28T06:23:01.929Z,52.10
2023-01-28T06:25:28.449Z,52.10
2023-01-28T06:27:54.929Z,52.10
2023-01-28T06:30:21.425Z,52.10
2023-01-28T06:32:47.912Z,52.10
2023-01-28T06:35:14.402Z,52.10
2023-01-28T06:37:40.863Z,52.10
2023-01-28T06:40:07.334Z,52.00
2023-01-28T06:42:33.817Z,52.00
2023-01-28T06:45:00.302Z,51.90
2023-01-28T06:47:26.761Z,51.90
2023-01-28T06:49:53.238Z,51.90
2023-01-28T06:52:19.766Z,51.80
2023-01-28T06:54:46.253Z,51.80
2023-01-28T06:57:16.437Z,51.80
2023-01-28T06:59:42.905Z,51.80
2023-01-28T07:02:09.395Z,51.80
2023-01-28T07:04:35.875Z,51.70
2023-01-28T07:07:04.436Z,51.70
2023-01-28T07:09:30.907Z,51.70
2023-01-28T07:11:58.421Z,51.70
2023-01-28T07:14:24.891Z,51.70
2023-01-28T07:16:51.388Z,51.60
2023-01-28T07:19:17.856Z,51.60
2023-01-28T07:21:44.335Z,51.50
2023-01-28T07:24:10.876Z,51.50
2023-01-28T07:29:28.116Z,51.50
2023-01-28T07:31:54.652Z,51.50
2023-01-28T07:34:21.182Z,51.30
2023-01-28T07:36:47.658Z,51.40
2023-01-28T07:39:14.125Z,51.50
2023-01-28T07:41:40.609Z,51.40
2023-01-28T07:44:10.637Z,51.40
2023-01-28T07:46:37.119Z,51.30
2023-01-28T07:49:04.431Z,51.30
2023-01-28T07:51:30.909Z,51.30
2023-01-28T07:53:57.363Z,51.30
2023-01-28T07:56:23.909Z,51.30
2023-01-28T07:58:50.369Z,51.30
2023-01-28T08:01:16.897Z,51.30
2023-01-28T08:03:43.402Z,51.20
2023-01-28T08:06:09.868Z,51.20
2023-01-28T08:08:36.352Z,51.10
2023-01-28T08:11:02.812Z,51.20
2023-01-28T08:13:29.276Z,51.20
2023-01-28T08:15:55.772Z,51.10
2023-01-28T08:18:22.317Z,51.10
2023-01-28T08:20:48.777Z,51.10
2023-01-28T08:23:16.491Z,51.10
2023-01-28T08:25:42.981Z,51.10
2023-01-28T08:28:10.503Z,51.10
2023-01-28T08:30:37.012Z,51.10
2023-01-28T08:33:03.515Z,51.00
2023-01-28T08:35:30.002Z,51.10
2023-01-28T08:37:56.473Z,51.10
2023-01-28T08:40:22.933Z,51.00
2023-01-28T08:42:49.423Z,51.00
2023-01-28T08:45:15.910Z,51.00
2023-01-28T08:47:42.388Z,50.90
2023-01-28T08:50:08.867Z,50.90
2023-01-28T08:52:35.366Z,50.90
2023-01-28T08:55:01.834Z,50.90
2023-01-28T08:57:28.351Z,50.90
2023-01-28T08:59:54.838Z,50.90
2023-01-28T09:02:31.062Z,50.80
2023-01-28T09:04:58.143Z,50.90
2023-01-28T09:07:24.616Z,50.90
2023-01-28T09:09:52.532Z,50.80
2023-01-28T09:12:19.015Z,50.70
2023-01-28T09:14:45.496Z,50.80
2023-01-28T09:17:11.988Z,50.70
2023-01-28T09:19:38.489Z,50.60
2023-01-28T09:22:04.958Z,50.80
2023-01-28T09:24:31.458Z,50.70
2023-01-28T09:26:57.955Z,50.60
2023-01-28T09:29:28.549Z,50.60
2023-01-28T09:31:55.095Z,50.50
2023-01-28T09:34:21.612Z,50.50
2023-01-28T09:36:48.074Z,50.40
2023-01-28T09:39:14.553Z,50.40
2023-01-28T09:41:41.015Z,50.40
2023-01-28T09:44:07.506Z,50.40
2023-01-28T09:46:34.011Z,50.30
2023-01-28T09:49:00.535Z,50.30
2023-01-28T09:51:27.013Z,50.40
2023-01-28T09:53:53.511Z,50.30
2023-01-28T09:56:19.977Z,50.40
2023-01-28T09:58:46.466Z,50.30
2023-01-28T10:01:13.002Z,50.40
2023-01-28T10:03:39.558Z,50.30
2023-01-28T10:06:06.071Z,50.00
2023-01-28T10:08:32.589Z,50.20
2023-01-28T10:10:59.062Z,50.20
2023-01-28T10:13:25.574Z,49.90
2023-01-28T10:15:52.042Z,50.20
2023-01-28T10:18:18.656Z,50.30
2023-01-28T10:20:46.568Z,50.20
2023-01-28T10:23:13.048Z,50.20
2023-01-28T10:25:39.540Z,50.20
2023-01-28T10:28:05.989Z,50.10
2023-01-28T10:30:32.473Z,50.10
2023-01-28T10:32:58.941Z,50.10
2023-01-28T10:35:25.409Z,50.10
2023-01-28T10:37:51.892Z,50.10
2023-01-28T10:40:18.363Z,50.10
2023-01-28T10:42:44.866Z,50.00
2023-01-28T10:45:11.359Z,49.80
2023-01-28T10:47:37.829Z,50.00
2023-01-28T10:50:04.337Z,50.00
2023-01-28T10:52:30.811Z,49.90
2023-01-28T10:54:57.320Z,49.90
2023-01-28T10:57:23.805Z,49.90
2023-01-28T10:59:50.298Z,49.90
2023-01-28T11:02:16.813Z,49.90
2023-01-28T11:04:43.315Z,49.90
2023-01-28T11:07:09.805Z,49.90
2023-01-28T11:09:36.270Z,49.90
2023-01-28T11:12:02.741Z,49.90
2023-01-28T11:14:29.225Z,49.80
2023-01-28T11:16:55.710Z,49.80
2023-01-28T11:19:22.199Z,49.80
2023-01-28T11:21:48.719Z,49.80
2023-01-28T11:24:15.261Z,49.70
2023-01-28T11:26:41.880Z,49.80
2023-01-28T11:29:08.336Z,49.70
2023-01-28T11:31:34.911Z,49.60
2023-01-28T11:34:01.521Z,49.70
2023-01-28T11:36:28.014Z,49.70
2023-01-28T11:38:54.506Z,49.60
2023-01-28T11:41:21.013Z,49.60
2023-01-28T11:43:47.480Z,49.70
2023-01-28T11:46:16.717Z,49.60
2023-01-28T11:48:43.302Z,49.50
2023-01-28T11:51:09.781Z,49.50
2023-01-28T11:53:36.465Z,49.60
2023-01-28T11:56:04.674Z,49.60
2023-01-28T11:58:31.174Z,49.50
2023-01-28T12:00:57.647Z,49.60
2023-01-28T12:03:24.102Z,49.40
2023-01-28T12:05:50.604Z,49.50
2023-01-28T12:08:17.065Z,49.50
2023-01-28T12:10:43.541Z,49.50
2023-01-28T12:13:10.009Z,49.50
2023-01-28T12:15:36.551Z,49.40
2023-01-28T12:18:03.045Z,49.30
2023-01-28T12:20:29.575Z,49.40
2023-01-28T12:22:58.159Z,49.50
2023-01-28T12:25:24.851Z,49.50
2023-01-28T12:27:51.328Z,49.40
2023-01-28T12:30:18.057Z,49.40
2023-01-28T12:32:44.698Z,49.40
2023-01-28T12:35:11.181Z,49.30
2023-01-28T12:37:37.656Z,49.20
2023-01-28T12:40:04.130Z,49.30
2023-01-28T12:42:34.709Z,49.20
2023-01-28T12:45:01.185Z,49.30
2023-01-28T12:47:27.681Z,49.40
2023-01-28T12:49:54.157Z,49.20
2023-01-28T12:52:21.989Z,49.40
2023-01-28T12:54:49.303Z,49.20
2023-01-28T12:57:15.803Z,49.30
2023-01-28T12:59:42.284Z,49.40
2023-01-28T13:02:08.835Z,49.40
2023-01-28T13:04:35.342Z,49.40
2023-01-28T13:07:01.874Z,49.50
2023-01-28T13:09:28.337Z,49.40
2023-01-28T13:11:58.730Z,49.30
2023-01-28T13:14:25.203Z,49.30
2023-01-28T13:16:51.694Z,49.10
2023-01-28T13:19:18.186Z,49.30
2023-01-28T13:21:49.409Z,49.30
2023-01-28T13:24:16.300Z,49.20
2023-01-28T13:26:42.847Z,49.20
2023-01-28T13:29:09.332Z,49.10
2023-01-28T13:31:35.811Z,49.30
2023-01-28T13:34:02.316Z,49.30
2023-01-28T13:36:28.930Z,49.30
2023-01-28T13:38:55.400Z,49.30
2023-01-28T13:41:21.858Z,49.30
2023-01-28T13:43:48.321Z,49.30
2023-01-28T13:46:14.849Z,49.30
2023-01-28T13:48:41.344Z,49.30
2023-01-28T13:51:07.824Z,49.30
2023-01-28T13:53:34.287Z,49.30
2023-01-28T13:56:00.809Z,49.30
2023-01-28T13:58:27.298Z,49.10
2023-01-28T14:00:53.805Z,49.40
2023-01-28T14:03:20.286Z,49.30
2023-01-28T14:05:46.803Z,49.20
2023-01-28T14:08:13.266Z,49.40
2023-01-28T14:10:39.795Z,49.40
2023-01-28T14:13:06.282Z,49.50
2023-01-28T14:15:32.820Z,49.40
2023-01-28T14:17:59.348Z,49.40
2023-01-28T14:20:26.573Z,49.40
2023-01-28T14:22:53.934Z,49.40
2023-01-28T14:25:20.400Z,49.40
2023-01-28T14:27:46.889Z,49.40
2023-01-28T14:30:13.348Z,49.50
2023-01-28T14:32:39.820Z,49.40
2023-01-28T14:35:06.370Z,49.40
2023-01-28T14:37:32.842Z,49.50
2023-01-28T14:39:59.309Z,49.60
2023-01-28T14:42:25.811Z,49.50
2023-01-28T14:44:52.272Z,49.60
2023-01-28T14:47:18.765Z,49.60
2023-01-28T14:49:45.238Z,49.60
2023-01-28T14:52:11.744Z,49.60
2023-01-28T14:54:38.211Z,49.60
2023-01-28T14:57:04.691Z,49.60
2023-01-28T14:59:31.173Z,49.60
2023-01-28T15:01:57.797Z,49.60
2023-01-28T15:04:24.375Z,49.60
2023-01-28T15:06:52.785Z,49.60
2023-01-28T15:09:19.251Z,49.70
2023-01-28T15:11:45.722Z,49.50
2023-01-28T15:14:12.199Z,49.70
2023-01-28T15:16:38.759Z,49.70
2023-01-28T15:19:05.286Z,49.60
2023-01-28T15:21:31.773Z,49.80
2023-01-28T15:23:58.299Z,49.80
2023-01-28T15:26:24.810Z,49.80
2023-01-28T15:28:51.271Z,49.80
2023-01-28T15:31:17.775Z,49.80
2023-01-28T15:33:44.301Z,49.80
2023-01-28T15:36:10.794Z,49.80
2023-01-28T15:38:37.272Z,49.80
2023-01-28T15:41:03.747Z,49.80
2023-01-28T15:43:30.248Z,49.70
2023-01-28T15:45:56.735Z,49.70
2023-01-28T15:48:23.240Z,49.80
2023-01-28T15:50:49.713Z,49.80
2023-01-28T15:53:16.202Z,49.70
2023-01-28T15:55:42.677Z,49.70
2023-01-28T15:58:09.169Z,49.80
2023-01-28T16:00:35.690Z,49.70
2023-01-28T16:03:02.348Z,49.70
2023-01-28T16:05:28.847Z,49.60
2023-01-28T16:07:55.370Z,49.70
2023-01-28T16:10:21.853Z,49.70
2023-01-28T16:12:48.342Z,49.70
2023-01-28T16:15:16.963Z,49.70
2023-01-28T16:17:44.758Z,49.70
2023-01-28T16:20:11.226Z,49.70
2023-01-28T16:22:40.900Z,49.70
2023-01-28T16:25:07.398Z,49.70
2023-01-28T16:27:33.880Z,49.60
2023-01-28T16:30:00.476Z,49.70
2023-01-28T16:32:27.001Z,49.70
2023-01-28T16:34:53.469Z,49.70
2023-01-28T16:37:19.944Z,49.70
2023-01-28T16:39:46.906Z,49.70
2023-01-28T16:42:13.388Z,49.70
2023-01-28T16:44:39.878Z,49.70
2023-01-28T16:47:06.341Z,49.60
2023-01-28T16:49:32.839Z,49.60
2023-01-28T16:51:59.316Z,49.60
2023-01-28T16:54:25.805Z,49.60
2023-01-28T16:56:52.270Z,49.70
2023-01-28T16:59:18.762Z,49.60
2023-01-28T17:01:45.253Z,49.60
2023-01-28T17:04:13.017Z,49.60
2023-01-28T17:06:39.682Z,49.60
2023-01-28T17:09:06.172Z,49.50
2023-01-28T17:11:32.633Z,49.60
2023-01-28T17:13:59.123Z,49.60
2023-01-28T17:16:25.645Z,49.60
2023-01-28T17:18:52.154Z,49.60
2023-01-28T17:21:18.694Z,49.50
2023-01-28T17:23:45.165Z,49.50
2023-01-28T17:26:11.658Z,49.50
2023-01-28T17:28:38.153Z,49.40
2023-01-28T17:31:04.735Z,49.50
2023-01-28T17:33:31.243Z,49.50
2023-01-28T17:35:57.837Z,49.50
2023-01-28T17:38:24.315Z,49.40
2023-01-28T17:40:50.815Z,49.40
2023-01-28T17:43:17.313Z,49.50
2023-01-28T17:45:43.862Z,49.40
2023-01-28T17:48:10.420Z,49.50
2023-01-28T17:50:36.919Z,49.40
2023-01-28T17:53:03.381Z,49.40
2023-01-28T17:55:29.872Z,49.40
2023-01-28T17:57:56.351Z,49.40
2023-01-28T18:00:22.883Z,49.40
2023-01-28T18:02:49.371Z,49.40
2023-01-28T18:05:16.220Z,49.40
2023-01-28T18:07:43.000Z,49.40
2023-01-28T18:10:09.540Z,49.30
2023-01-28T18:12:36.034Z,49.30
2023-01-28T18:15:02.513Z,49.40
2023-01-28T18:17:29.042Z,49.30
2023-01-28T18:19:55.539Z,49.30
2023-01-28T18:22:22.020Z,49.30
2023-01-28T18:24:48.484Z,49.30
2023-01-28T18:27:14.969Z,49.30
2023-01-28T18:29:41.435Z,49.20
2023-01-28T18:32:07.913Z,49.20
2023-01-28T18:34:34.394Z,49.20
2023-01-28T18:37:00.863Z,49.20
2023-01-28T18:39:27.337Z,49.30
2023-01-28T18:41:53.813Z,49.20
2023-01-28T18:44:20.303Z,49.10
2023-01-28T18:46:46.805Z,49.20
2023-01-28T18:49:13.280Z,49.20
2023-01-28T18:51:39.782Z,49.10
2023-01-28T18:54:09.539Z,49.20
2023-01-28T18:56:37.643Z,49.10
2023-01-28T18:59:04.125Z,49.10
2023-01-28T19:01:30.681Z,49.10
2023-01-28T19:03:57.215Z,49.10
2023-01-28T19:06:23.721Z,49.10
2023-01-28T19:08:50.424Z,49.10
2023-01-28T19:11:16.895Z,49.10
2023-01-28T19:13:43.378Z,49.00
2023-01-28T19:16:09.882Z,49.00
2023-01-28T19:18:36.368Z,48.90
2023-01-28T19:21:02.850Z,48.90
2023-01-28T19:23:33.075Z,48.90
2023-01-28T19:26:07.499Z,48.90
2023-01-28T19:28:33.986Z,48.90
2023-01-28T19:31:00.490Z,48.90
2023-01-28T19:33:26.985Z,48.90
2023-01-28T19:35:53.451Z,48.90
2023-01-28T19:38:23.052Z,48.80
2023-01-28T19:40:49.535Z,48.70
2023-01-28T19:43:16.035Z,48.60
2023-01-28T19:45:42.502Z,48.80
2023-01-28T19:48:08.997Z,48.80
2023-01-28T19:50:35.470Z,48.80
2023-01-28T19:53:01.959Z,48.80
2023-01-28T19:55:28.439Z,48.70
2023-01-28T19:57:54.931Z,48.70
2023-01-28T20:00:21.414Z,48.70
2023-01-28T20:02:48.009Z,48.70
2023-01-28T20:05:14.765Z,48.70
2023-01-28T20:07:41.518Z,48.60
2023-01-28T20:10:08.802Z,48.70
2023-01-28T20:12:35.739Z,48.60
2023-01-28T20:15:02.217Z,48.70
2023-01-28T20:17:28.767Z,48.60
2023-01-28T20:19:55.285Z,48.50
2023-01-28T20:22:23.034Z,48.50
2023-01-28T20:24:49.502Z,48.40
2023-01-28T20:27:15.962Z,48.50
2023-01-28T20:29:42.446Z,48.50
2023-01-28T20:32:16.539Z,48.40
2023-01-28T20:34:45.677Z,48.50
2023-01-28T20:37:12.145Z,48.30
2023-01-28T20:39:38.601Z,48.40
2023-01-28T20:42:05.086Z,48.40
2023-01-28T20:44:31.565Z,48.40
2023-01-28T20:46:58.058Z,48.40
2023-01-28T20:49:25.988Z,48.30
2023-01-28T20:51:54.362Z,48.40
2023-01-28T20:54:20.823Z,48.30
2023-01-28T20:56:47.291Z,48.30
2023-01-28T20:59:13.803Z,48.20
2023-01-28T21:01:40.363Z,48.10
2023-01-28T21:04:09.008Z,48.10
2023-01-28T21:06:36.902Z,48.10
2023-01-28T21:09:03.390Z,48.20
2023-01-28T21:11:29.855Z,48.10
2023-01-28T21:13:56.353Z,48.00
2023-01-28T21:16:22.830Z,48.20
2023-01-28T21:18:49.320Z,48.10
2023-01-28T21:21:15.788Z,48.00
2023-01-28T21:23:42.273Z,48.10
2023-01-28T21:26:08.759Z,48.00
2023-01-28T21:28:35.253Z,48.10
2023-01-28T21:31:01.778Z,48.00
2023-01-28T21:33:28.357Z,48.00
2023-01-28T21:35:54.784Z,47.90
2023-01-28T21:38:21.277Z,47.90
2023-01-28T21:40:47.773Z,47.90
2023-01-28T21:43:14.242Z,48.00
2023-01-28T21:45:40.755Z,47.90
2023-01-28T21:48:07.224Z,48.00
2023-01-28T21:50:33.726Z,47.90
2023-01-28T21:53:00.201Z,47.90
2023-01-28T21:55:26.692Z,47.80
2023-01-28T21:57:53.169Z,47.80
2023-01-28T22:00:19.802Z,47.80
2023-01-28T22:02:46.372Z,47.80
2023-01-28T22:05:12.846Z,47.80
2023-01-28T22:07:39.315Z,47.80
2023-01-28T22:10:05.795Z,47.80
2023-01-28T22:12:32.256Z,47.80
2023-01-28T22:14:58.740Z,47.80
2023-01-28T22:17:25.226Z,47.70
2023-01-28T22:19:51.752Z,47.70
2023-01-28T22:22:18.238Z,47.70
2023-01-28T22:24:44.759Z,47.60
2023-01-28T22:27:11.243Z,47.70
2023-01-28T22:29:37.758Z,47.60
2023-01-28T22:32:04.281Z,47.60
2023-01-28T22:34:30.795Z,47.60
2023-01-28T22:36:57.285Z,47.50
2023-01-28T22:39:23.804Z,47.60
2023-01-28T22:41:50.288Z,47.50
2023-01-28T22:44:16.778Z,47.50
2023-01-28T22:46:43.318Z,47.40
2023-01-28T22:49:09.830Z,47.50
2023-01-28T22:51:36.368Z,47.50
2023-01-28T22:54:02.824Z,47.50
2023-01-28T22:56:35.210Z,47.50
2023-01-28T22:59:01.702Z,47.50
2023-01-28T23:01:29.316Z,47.40
2023-01-28T23:03:55.800Z,47.40
2023-01-28T23:06:22.281Z,47.30
2023-01-28T23:08:48.755Z,47.40
2023-01-28T23:11:15.244Z,47.30
2023-01-28T23:13:41.728Z,47.30
2023-01-28T23:16:08.212Z,47.30
2023-01-28T23:18:34.694Z,47.40
2023-01-28T23:21:01.187Z,47.40
2023-01-28T23:23:27.674Z,47.30
2023-01-28T23:25:54.147Z,47.30
2023-01-28T23:28:20.627Z,47.30
2023-01-28T23:30:47.122Z,47.30
2023-01-28T23:33:13.591Z,47.10
2023-01-28T23:35:40.071Z,47.20
2023-01-28T23:38:06.531Z,47.20
2023-01-28T23:40:33.002Z,47.20
2023-01-28T23:42:59.498Z,47.20
2023-01-28T23:45:25.970Z,47.10
2023-01-28T23:47:52.489Z,47.10
2023-01-28T23:50:19.204Z,47.10
2023-01-28T23:52:45.833Z,47.00
2023-01-28T23:55:12.337Z,47.10
2023-01-28T23:57:38.835Z,47.00
